createdAt,value
2016-12-09T00:00:00.667Z,74689
2016-12-09T00:00:09.672Z,74688
2016-12-09T00:00:18.406Z,74701
2016-12-09T00:00:27.176Z,74691
2016-12-09T00:00:35.904Z,74693
2016-12-09T00:00:44.593Z,74696
2016-12-09T00:00:53.293Z,74696
2016-12-09T00:01:01.977Z,74712
2016-12-09T00:01:10.691Z,74711
2016-12-09T00:01:19.390Z,74699
2016-12-09T00:01:28.053Z,74684
2016-12-09T00:01:36.740Z,74685
2016-12-09T00:01:45.452Z,74700
2016-12-09T00:01:54.141Z,74693
2016-12-09T00:02:02.862Z,74694
2016-12-09T00:02:11.570Z,74701
2016-12-09T00:02:20.277Z,74695
2016-12-09T00:02:28.976Z,74699
2016-12-09T00:02:37.684Z,74688
2016-12-09T00:02:46.349Z,74690
2016-12-09T00:02:55.049Z,74693
2016-12-09T00:03:03.763Z,74691
2016-12-09T00:03:12.489Z,74684
2016-12-09T00:03:21.215Z,74692
2016-12-09T00:03:29.963Z,74692
2016-12-09T00:03:38.684Z,74694
2016-12-09T00:03:47.396Z,74689
2016-12-09T00:03:56.094Z,74695
2016-12-09T00:04:04.840Z,74694
2016-12-09T00:04:13.542Z,74696
2016-12-09T00:04:22.260Z,74694
2016-12-09T00:04:30.998Z,74689
2016-12-09T00:04:40.011Z,74691
2016-12-09T00:04:48.713Z,74689
2016-12-09T00:04:57.424Z,74680
2016-12-09T00:05:06.109Z,74686
2016-12-09T00:05:14.796Z,74692
2016-12-09T00:05:23.522Z,74690
2016-12-09T00:05:32.255Z,74690
2016-12-09T00:05:41.003Z,74691
2016-12-09T00:05:49.746Z,74701
2016-12-09T00:05:58.456Z,74700
2016-12-09T00:06:07.147Z,74697
2016-12-09T00:06:15.825Z,74692
2016-12-09T00:06:24.818Z,74690
2016-12-09T00:06:33.476Z,74685
2016-12-09T00:06:42.186Z,74680
2016-12-09T00:06:50.962Z,74681
2016-12-09T00:06:59.698Z,74675
2016-12-09T00:07:08.430Z,74689
2016-12-09T00:07:17.152Z,74684
2016-12-09T00:07:25.880Z,74685
2016-12-09T00:07:34.584Z,74682
2016-12-09T00:07:43.315Z,74686
2016-12-09T00:07:52.058Z,74672
2016-12-09T00:08:00.748Z,74680
2016-12-09T00:08:09.435Z,74672
2016-12-09T00:08:18.164Z,74682
2016-12-09T00:08:26.870Z,74677
2016-12-09T00:08:35.576Z,74674
2016-12-09T00:08:44.278Z,74673
2016-12-09T00:08:52.987Z,74677
2016-12-09T00:09:02.007Z,74673
2016-12-09T00:09:10.707Z,74671
2016-12-09T00:09:19.404Z,74676
2016-12-09T00:09:28.149Z,74687
2016-12-09T00:09:36.833Z,74688
2016-12-09T00:09:45.550Z,74686
2016-12-09T00:09:54.277Z,74693
2016-12-09T00:10:03.003Z,74688
2016-12-09T00:10:11.729Z,74678
2016-12-09T00:10:20.468Z,74666
2016-12-09T00:10:29.140Z,74656
2016-12-09T00:10:37.900Z,74665
2016-12-09T00:10:46.595Z,74690
2016-12-09T00:10:55.311Z,74689
2016-12-09T00:11:04.024Z,74695
2016-12-09T00:11:12.789Z,74687
2016-12-09T00:11:21.524Z,74680
2016-12-09T00:11:30.226Z,74686
2016-12-09T00:11:38.929Z,74682
2016-12-09T00:11:47.654Z,74688
2016-12-09T00:11:56.365Z,74699
2016-12-09T00:12:05.091Z,74695
2016-12-09T00:12:13.836Z,74687
2016-12-09T00:12:22.577Z,74693
2016-12-09T00:12:31.282Z,74693
2016-12-09T00:12:40.011Z,74697
2016-12-09T00:12:48.740Z,74692
2016-12-09T00:12:57.437Z,74687
2016-12-09T00:13:06.155Z,74684
2016-12-09T00:13:14.892Z,74671
2016-12-09T00:13:23.611Z,74675
2016-12-09T00:13:32.319Z,74691
2016-12-09T00:13:41.065Z,74691
2016-12-09T00:13:49.793Z,74695
2016-12-09T00:13:58.492Z,74696
2016-12-09T00:14:07.195Z,74678
2016-12-09T00:14:15.932Z,74667
2016-12-09T00:14:24.646Z,74669
2016-12-09T00:14:33.327Z,74658
2016-12-09T00:14:42.074Z,74660
2016-12-09T00:14:50.794Z,74663
2016-12-09T00:14:59.503Z,74657
2016-12-09T00:15:08.192Z,74657
2016-12-09T00:15:16.902Z,74657
2016-12-09T00:15:25.585Z,74660
2016-12-09T00:15:34.338Z,74670
2016-12-09T00:15:43.407Z,74678
2016-12-09T00:15:52.133Z,74685
2016-12-09T00:16:00.831Z,74685
2016-12-09T00:16:09.584Z,74683
2016-12-09T00:16:18.279Z,74676
2016-12-09T00:16:26.989Z,74676
2016-12-09T00:16:35.711Z,74675
2016-12-09T00:16:44.407Z,74683
2016-12-09T00:16:53.073Z,74687
2016-12-09T00:17:01.779Z,74694
2016-12-09T00:17:10.838Z,74691
2016-12-09T00:17:19.562Z,74675
2016-12-09T00:17:28.280Z,74658
2016-12-09T00:17:36.964Z,74667
2016-12-09T00:17:45.694Z,74662
2016-12-09T00:17:54.464Z,74667
2016-12-09T00:18:03.192Z,74672
2016-12-09T00:18:11.900Z,74682
2016-12-09T00:18:20.640Z,74678
2016-12-09T00:18:29.348Z,74665
2016-12-09T00:18:38.091Z,74682
2016-12-09T00:18:46.853Z,74685
2016-12-09T00:18:55.540Z,74684
2016-12-09T00:19:04.288Z,74681
2016-12-09T00:19:12.970Z,74685
2016-12-09T00:19:21.652Z,74689
2016-12-09T00:19:30.362Z,74680
2016-12-09T00:19:39.105Z,74676
2016-12-09T00:19:47.859Z,74664
2016-12-09T00:19:56.564Z,74683
2016-12-09T00:20:05.272Z,74680
2016-12-09T00:20:13.959Z,74680
2016-12-09T00:20:22.644Z,74662
2016-12-09T00:20:31.346Z,74649
2016-12-09T00:20:40.098Z,74670
2016-12-09T00:20:48.807Z,74686
2016-12-09T00:20:57.489Z,74690
2016-12-09T00:21:06.210Z,74695
2016-12-09T00:21:14.895Z,74685
2016-12-09T00:21:23.609Z,74694
2016-12-09T00:21:32.333Z,74691
2016-12-09T00:21:41.032Z,74686
2016-12-09T00:21:49.730Z,74681
2016-12-09T00:21:58.468Z,74688
2016-12-09T00:22:07.196Z,74685
2016-12-09T00:22:15.942Z,74680
2016-12-09T00:22:24.641Z,74667
2016-12-09T00:22:33.388Z,74675
2016-12-09T00:22:42.094Z,74686
2016-12-09T00:22:50.805Z,74700
2016-12-09T00:22:59.548Z,74699
2016-12-09T00:23:08.290Z,74695
2016-12-09T00:23:16.983Z,74684
2016-12-09T00:23:25.701Z,74685
2016-12-09T00:23:34.409Z,74677
2016-12-09T00:23:43.137Z,74673
2016-12-09T00:23:51.855Z,74682
2016-12-09T00:24:00.584Z,74688
2016-12-09T00:24:09.323Z,74682
2016-12-09T00:24:18.033Z,74671
2016-12-09T00:24:26.772Z,74661
2016-12-09T00:24:35.494Z,74642
2016-12-09T00:24:44.233Z,74643
2016-12-09T00:24:52.951Z,74638
2016-12-09T00:25:01.704Z,74649
2016-12-09T00:25:10.445Z,74671
2016-12-09T00:25:19.171Z,74679
2016-12-09T00:25:27.918Z,74676
2016-12-09T00:25:36.603Z,74679
2016-12-09T00:25:45.270Z,74685
2016-12-09T00:25:53.987Z,74686
2016-12-09T00:26:02.725Z,74661
2016-12-09T00:26:11.450Z,74673
2016-12-09T00:26:20.173Z,74679
2016-12-09T00:26:28.852Z,74682
2016-12-09T00:26:37.554Z,74676
2016-12-09T00:26:46.298Z,74678
2016-12-09T00:26:54.963Z,74670
2016-12-09T00:27:04.271Z,74660
2016-12-09T00:27:12.959Z,74658
2016-12-09T00:27:21.704Z,74661
2016-12-09T00:27:30.407Z,74660
2016-12-09T00:27:39.112Z,74651
2016-12-09T00:27:47.810Z,74661
2016-12-09T00:27:56.535Z,74673
2016-12-09T00:28:05.268Z,74677
2016-12-09T00:28:13.965Z,74663
2016-12-09T00:28:22.678Z,74662
2016-12-09T00:28:31.374Z,74665
2016-12-09T00:28:40.417Z,74662
2016-12-09T00:28:49.185Z,74674
2016-12-09T00:28:57.922Z,74682
2016-12-09T00:29:06.612Z,74674
2016-12-09T00:29:15.308Z,74668
2016-12-09T00:29:24.037Z,74657
2016-12-09T00:29:32.759Z,74633
2016-12-09T00:29:41.488Z,74620
2016-12-09T00:29:50.213Z,74631
2016-12-09T00:29:58.904Z,74646
2016-12-09T00:30:07.636Z,74664
2016-12-09T00:30:16.373Z,74662
2016-12-09T00:30:25.122Z,74656
2016-12-09T00:30:33.837Z,74644
2016-12-09T00:30:42.543Z,74629
2016-12-09T00:30:51.250Z,74631
2016-12-09T00:30:59.935Z,74635
2016-12-09T00:31:08.667Z,74657
2016-12-09T00:31:17.423Z,74653
2016-12-09T00:31:26.179Z,74634
2016-12-09T00:31:34.899Z,74626
2016-12-09T00:31:43.603Z,74635
2016-12-09T00:31:52.309Z,74651
2016-12-09T00:32:01.013Z,74665
2016-12-09T00:32:09.723Z,74672
2016-12-09T00:32:18.454Z,74667
2016-12-09T00:32:27.155Z,74659
2016-12-09T00:32:35.899Z,74673
2016-12-09T00:32:44.643Z,74670
2016-12-09T00:32:53.399Z,74663
2016-12-09T00:33:02.120Z,74652
2016-12-09T00:33:10.830Z,74651
2016-12-09T00:33:19.539Z,74653
2016-12-09T00:33:28.267Z,74661
2016-12-09T00:33:37.015Z,74660
2016-12-09T00:33:46.001Z,74667
2016-12-09T00:33:54.710Z,74677
2016-12-09T00:34:03.441Z,74678
2016-12-09T00:34:12.447Z,74679
2016-12-09T00:34:21.155Z,74666
2016-12-09T00:34:29.821Z,74674
2016-12-09T00:34:38.510Z,74666
2016-12-09T00:34:47.209Z,74666
2016-12-09T00:34:55.931Z,74655
2016-12-09T00:35:04.627Z,74663
2016-12-09T00:35:13.359Z,74651
2016-12-09T00:35:22.139Z,74655
2016-12-09T00:35:30.821Z,74661
2016-12-09T00:35:39.558Z,74655
2016-12-09T00:35:48.255Z,74656
2016-12-09T00:35:56.945Z,74662
2016-12-09T00:36:05.668Z,74663
2016-12-09T00:36:14.404Z,74664
2016-12-09T00:36:23.139Z,74666
2016-12-09T00:36:31.869Z,74661
2016-12-09T00:36:40.586Z,74657
2016-12-09T00:36:49.286Z,74650
2016-12-09T00:36:58.029Z,74647
2016-12-09T00:37:06.792Z,74650
2016-12-09T00:37:15.492Z,74653
2016-12-09T00:37:24.183Z,74646
2016-12-09T00:37:32.909Z,74642
2016-12-09T00:37:41.677Z,74644
2016-12-09T00:37:50.411Z,74654
2016-12-09T00:37:59.137Z,74650
2016-12-09T00:38:07.822Z,74652
2016-12-09T00:38:16.529Z,74653
2016-12-09T00:38:25.249Z,74649
2016-12-09T00:38:34.009Z,74652
2016-12-09T00:38:42.729Z,74655
2016-12-09T00:38:51.445Z,74659
2016-12-09T00:39:00.154Z,74658
2016-12-09T00:39:08.829Z,74648
2016-12-09T00:39:17.551Z,74645
2016-12-09T00:39:26.270Z,74643
2016-12-09T00:39:34.972Z,74646
2016-12-09T00:39:43.681Z,74657
2016-12-09T00:39:52.382Z,74663
2016-12-09T00:40:01.079Z,74669
2016-12-09T00:40:10.082Z,74669
2016-12-09T00:40:18.766Z,74655
2016-12-09T00:40:27.477Z,74667
2016-12-09T00:40:36.172Z,74640
2016-12-09T00:40:44.895Z,74629
2016-12-09T00:40:53.619Z,74621
2016-12-09T00:41:02.300Z,74612
2016-12-09T00:41:11.029Z,74610
2016-12-09T00:41:19.750Z,74617
2016-12-09T00:41:28.474Z,74637
2016-12-09T00:41:37.210Z,74652
2016-12-09T00:41:45.987Z,74644
2016-12-09T00:41:54.734Z,74644
2016-12-09T00:42:03.435Z,74634
2016-12-09T00:42:12.099Z,74640
2016-12-09T00:42:20.804Z,74643
2016-12-09T00:42:29.488Z,74651
2016-12-09T00:42:38.210Z,74660
2016-12-09T00:42:46.923Z,74662
2016-12-09T00:42:55.671Z,74663
2016-12-09T00:43:04.391Z,74656
2016-12-09T00:43:13.072Z,74655
2016-12-09T00:43:21.758Z,74662
2016-12-09T00:43:30.485Z,74671
2016-12-09T00:43:39.204Z,74663
2016-12-09T00:43:47.885Z,74667
2016-12-09T00:43:56.594Z,74672
2016-12-09T00:44:05.282Z,74652
2016-12-09T00:44:14.019Z,74648
2016-12-09T00:44:22.688Z,74654
2016-12-09T00:44:31.392Z,74648
2016-12-09T00:44:40.114Z,74657
2016-12-09T00:44:48.846Z,74654
2016-12-09T00:44:57.509Z,74645
2016-12-09T00:45:06.232Z,74647
2016-12-09T00:45:14.952Z,74642
2016-12-09T00:45:23.675Z,74653
2016-12-09T00:45:32.381Z,74661
2016-12-09T00:45:41.088Z,74673
2016-12-09T00:45:49.810Z,74668
2016-12-09T00:45:58.514Z,74642
2016-12-09T00:46:07.232Z,74660
2016-12-09T00:46:15.933Z,74661
2016-12-09T00:46:24.638Z,74684
2016-12-09T00:46:33.365Z,74681
2016-12-09T00:46:42.088Z,74663
2016-12-09T00:46:50.822Z,74667
2016-12-09T00:46:59.544Z,74669
2016-12-09T00:47:08.227Z,74667
2016-12-09T00:47:16.924Z,74656
2016-12-09T00:47:25.685Z,74655
2016-12-09T00:47:34.378Z,74657
2016-12-09T00:47:43.102Z,74666
2016-12-09T00:47:51.827Z,74668
2016-12-09T00:48:00.554Z,74660
2016-12-09T00:48:09.263Z,74660
2016-12-09T00:48:17.984Z,74657
2016-12-09T00:48:26.691Z,74672
2016-12-09T00:48:35.394Z,74676
2016-12-09T00:48:44.084Z,74682
2016-12-09T00:48:52.838Z,74680
2016-12-09T00:49:01.559Z,74682
2016-12-09T00:49:10.312Z,74673
2016-12-09T00:49:19.029Z,74669
2016-12-09T00:49:27.708Z,74658
2016-12-09T00:49:36.435Z,74654
2016-12-09T00:49:45.140Z,74668
2016-12-09T00:49:53.822Z,74668
2016-12-09T00:50:02.578Z,74675
2016-12-09T00:50:11.251Z,74684
2016-12-09T00:50:19.964Z,74677
2016-12-09T00:50:28.690Z,74683
2016-12-09T00:50:37.410Z,74688
2016-12-09T00:50:46.142Z,74688
2016-12-09T00:50:54.869Z,74680
2016-12-09T00:51:03.565Z,74683
2016-12-09T00:51:12.310Z,74674
2016-12-09T00:51:21.021Z,74674
2016-12-09T00:51:29.743Z,74670
2016-12-09T00:51:38.485Z,74680
2016-12-09T00:51:47.185Z,74673
2016-12-09T00:51:56.207Z,74681
2016-12-09T00:52:04.932Z,74670
2016-12-09T00:52:13.928Z,74674
2016-12-09T00:52:22.924Z,74680
2016-12-09T00:52:31.961Z,74689
2016-12-09T00:52:40.695Z,74680
2016-12-09T00:52:49.419Z,74681
2016-12-09T00:52:58.153Z,74676
2016-12-09T00:53:06.867Z,74665
2016-12-09T00:53:15.610Z,74683
2016-12-09T00:53:24.311Z,74697
2016-12-09T00:53:33.078Z,74694
2016-12-09T00:53:41.786Z,74693
2016-12-09T00:53:50.529Z,74690
2016-12-09T00:53:59.236Z,74691
2016-12-09T00:54:07.995Z,74686
2016-12-09T00:54:16.722Z,74684
2016-12-09T00:54:25.454Z,74680
2016-12-09T00:54:34.158Z,74689
2016-12-09T00:54:42.884Z,74688
2016-12-09T00:54:51.614Z,74681
2016-12-09T00:55:00.362Z,74673
2016-12-09T00:55:09.074Z,74672
2016-12-09T00:55:17.807Z,74667
2016-12-09T00:55:26.562Z,74668
2016-12-09T00:55:35.291Z,74664
2016-12-09T00:55:44.008Z,74663
2016-12-09T00:55:52.716Z,74667
2016-12-09T00:56:01.408Z,74656
2016-12-09T00:56:10.133Z,74664
2016-12-09T00:56:18.850Z,74669
2016-12-09T00:56:27.537Z,74676
2016-12-09T00:56:36.267Z,74676
2016-12-09T00:56:45.177Z,74672
2016-12-09T00:56:53.896Z,74674
2016-12-09T00:57:02.599Z,74671
2016-12-09T00:57:11.310Z,74671
2016-12-09T00:57:20.055Z,74668
2016-12-09T00:57:28.826Z,74671
2016-12-09T00:57:37.542Z,74667
2016-12-09T00:57:46.563Z,74671
2016-12-09T00:57:55.308Z,74670
2016-12-09T00:58:03.985Z,74661
2016-12-09T00:58:12.692Z,74669
2016-12-09T00:58:21.395Z,74676
2016-12-09T00:58:30.077Z,74694
2016-12-09T00:58:38.780Z,74699
2016-12-09T00:58:47.505Z,74698
2016-12-09T00:58:56.179Z,74696
2016-12-09T00:59:04.879Z,74692
2016-12-09T00:59:13.590Z,74687
2016-12-09T00:59:22.334Z,74687
2016-12-09T00:59:31.063Z,74683
2016-12-09T00:59:39.802Z,74684
2016-12-09T00:59:48.472Z,74676
2016-12-09T00:59:57.177Z,74665
2016-12-09T01:00:05.919Z,74665
2016-12-09T01:00:14.619Z,74672
2016-12-09T01:00:23.377Z,74671
2016-12-09T01:00:32.101Z,74672
2016-12-09T01:00:40.805Z,74679
2016-12-09T01:00:49.509Z,74689
2016-12-09T01:00:58.256Z,74679
2016-12-09T01:01:06.987Z,74685
2016-12-09T01:01:16.013Z,74682
2016-12-09T01:01:24.703Z,74678
2016-12-09T01:01:33.420Z,74679
2016-12-09T01:01:42.107Z,74678
2016-12-09T01:01:50.831Z,74679
2016-12-09T01:01:59.540Z,74681
2016-12-09T01:02:08.287Z,74685
2016-12-09T01:02:16.986Z,74687
2016-12-09T01:02:25.646Z,74689
2016-12-09T01:02:34.334Z,74699
2016-12-09T01:02:43.004Z,74681
2016-12-09T01:02:51.703Z,74681
2016-12-09T01:03:00.395Z,74682
2016-12-09T01:03:09.115Z,74690
2016-12-09T01:03:17.820Z,74688
2016-12-09T01:03:26.509Z,74681
2016-12-09T01:03:35.231Z,74684
2016-12-09T01:03:43.976Z,74687
2016-12-09T01:03:52.700Z,74685
2016-12-09T01:04:01.405Z,74679
2016-12-09T01:04:10.148Z,74675
2016-12-09T01:04:18.850Z,74680
2016-12-09T01:04:27.580Z,74684
2016-12-09T01:04:36.335Z,74679
2016-12-09T01:04:45.315Z,74683
2016-12-09T01:04:54.071Z,74685
2016-12-09T01:05:02.761Z,74683
2016-12-09T01:05:11.470Z,74682
2016-12-09T01:05:20.188Z,74677
2016-12-09T01:05:28.933Z,74681
2016-12-09T01:05:37.669Z,74683
2016-12-09T01:05:46.433Z,74681
2016-12-09T01:05:55.129Z,74677
2016-12-09T01:06:03.841Z,74688
2016-12-09T01:06:12.827Z,74695
2016-12-09T01:06:21.510Z,74692
2016-12-09T01:06:30.236Z,74688
2016-12-09T01:06:38.958Z,74679
2016-12-09T01:06:47.674Z,74679
2016-12-09T01:06:56.363Z,74680
2016-12-09T01:07:05.037Z,74676
2016-12-09T01:07:13.740Z,74673
2016-12-09T01:07:22.479Z,74686
2016-12-09T01:07:31.224Z,74680
2016-12-09T01:07:39.918Z,74683
2016-12-09T01:07:48.617Z,74683
2016-12-09T01:07:57.276Z,74688
2016-12-09T01:08:05.992Z,74680
2016-12-09T01:08:14.748Z,74684
2016-12-09T01:08:23.412Z,74685
2016-12-09T01:08:32.116Z,74690
2016-12-09T01:08:40.828Z,74692
2016-12-09T01:08:49.510Z,74695
2016-12-09T01:08:58.261Z,74697
2016-12-09T01:09:06.963Z,74691
2016-12-09T01:09:15.677Z,74692
2016-12-09T01:09:24.336Z,74683
2016-12-09T01:09:33.070Z,74684
2016-12-09T01:09:41.797Z,74689
2016-12-09T01:09:50.526Z,74689
2016-12-09T01:09:59.253Z,74685
2016-12-09T01:10:08.013Z,74680
2016-12-09T01:10:16.717Z,74685
2016-12-09T01:10:25.429Z,74681
2016-12-09T01:10:34.180Z,74683
2016-12-09T01:10:42.886Z,74686
2016-12-09T01:10:51.590Z,74688
2016-12-09T01:11:00.329Z,74686
2016-12-09T01:11:09.050Z,74686
2016-12-09T01:11:17.749Z,74684
2016-12-09T01:11:26.450Z,74691
2016-12-09T01:11:35.189Z,74697
2016-12-09T01:11:43.902Z,74688
2016-12-09T01:11:52.645Z,74680
2016-12-09T01:12:01.375Z,74683
2016-12-09T01:12:10.073Z,74680
2016-12-09T01:12:18.764Z,74687
2016-12-09T01:12:27.516Z,74695
2016-12-09T01:12:36.260Z,74697
2016-12-09T01:12:44.977Z,74691
2016-12-09T01:12:53.951Z,74682
2016-12-09T01:13:02.678Z,74681
2016-12-09T01:13:11.403Z,74679
2016-12-09T01:13:20.134Z,74679
2016-12-09T01:13:28.881Z,74686
2016-12-09T01:13:37.569Z,74687
2016-12-09T01:13:46.297Z,74683
2016-12-09T01:13:54.985Z,74677
2016-12-09T01:14:03.692Z,74675
2016-12-09T01:14:12.397Z,74679
2016-12-09T01:14:21.105Z,74670
2016-12-09T01:14:29.807Z,74667
2016-12-09T01:14:38.541Z,74668
2016-12-09T01:14:47.278Z,74672
2016-12-09T01:14:55.987Z,74671
2016-12-09T01:15:04.672Z,74678
2016-12-09T01:15:13.384Z,74679
2016-12-09T01:15:22.103Z,74673
2016-12-09T01:15:30.854Z,74674
2016-12-09T01:15:39.576Z,74675
2016-12-09T01:15:48.261Z,74674
2016-12-09T01:15:56.953Z,74689
2016-12-09T01:16:05.694Z,74683
2016-12-09T01:16:14.403Z,74684
2016-12-09T01:16:23.102Z,74680
2016-12-09T01:16:32.131Z,74686
2016-12-09T01:16:40.863Z,74689
2016-12-09T01:16:49.544Z,74691
2016-12-09T01:16:58.234Z,74681
2016-12-09T01:17:06.933Z,74673
2016-12-09T01:17:15.645Z,74673
2016-12-09T01:17:24.346Z,74671
2016-12-09T01:17:33.071Z,74668
2016-12-09T01:17:41.760Z,74661
2016-12-09T01:17:50.501Z,74672
2016-12-09T01:17:59.222Z,74673
2016-12-09T01:18:07.915Z,74683
2016-12-09T01:18:16.644Z,74674
2016-12-09T01:18:25.436Z,74676
2016-12-09T01:18:34.180Z,74668
2016-12-09T01:18:42.926Z,74668
2016-12-09T01:18:51.626Z,74668
2016-12-09T01:19:00.305Z,74664
2016-12-09T01:19:09.019Z,74664
2016-12-09T01:19:17.747Z,74664
2016-12-09T01:19:26.520Z,74672
2016-12-09T01:19:35.200Z,74670
2016-12-09T01:19:43.946Z,74670
2016-12-09T01:19:52.998Z,74666
2016-12-09T01:20:01.693Z,74670
2016-12-09T01:20:10.404Z,74665
2016-12-09T01:20:19.153Z,74661
2016-12-09T01:20:27.872Z,74660
2016-12-09T01:20:36.594Z,74654
2016-12-09T01:20:45.347Z,74660
2016-12-09T01:20:54.093Z,74671
2016-12-09T01:21:03.089Z,74665
2016-12-09T01:21:11.786Z,74671
2016-12-09T01:21:20.521Z,74675
2016-12-09T01:21:29.233Z,74667
2016-12-09T01:21:37.920Z,74663
2016-12-09T01:21:46.652Z,74670
2016-12-09T01:21:55.354Z,74673
2016-12-09T01:22:04.058Z,74683
2016-12-09T01:22:12.743Z,74683
2016-12-09T01:22:21.447Z,74680
2016-12-09T01:22:30.172Z,74680
2016-12-09T01:22:38.876Z,74669
2016-12-09T01:22:47.625Z,74670
2016-12-09T01:22:56.360Z,74675
2016-12-09T01:23:05.052Z,74672
2016-12-09T01:23:13.769Z,74656
2016-12-09T01:23:22.455Z,74656
2016-12-09T01:23:31.171Z,74669
2016-12-09T01:23:39.865Z,74669
2016-12-09T01:23:48.586Z,74675
2016-12-09T01:23:57.306Z,74675
2016-12-09T01:24:05.999Z,74671
2016-12-09T01:24:14.730Z,74675
2016-12-09T01:24:23.499Z,74677
2016-12-09T01:24:32.211Z,74671
2016-12-09T01:24:40.935Z,74667
2016-12-09T01:24:49.919Z,74669
2016-12-09T01:24:58.647Z,74676
2016-12-09T01:25:07.377Z,74673
2016-12-09T01:25:16.119Z,74680
2016-12-09T01:25:24.805Z,74683
2016-12-09T01:25:33.511Z,74678
2016-12-09T01:25:42.210Z,74673
2016-12-09T01:25:50.971Z,74686
2016-12-09T01:25:59.694Z,74686
2016-12-09T01:26:08.378Z,74695
2016-12-09T01:26:17.066Z,74680
2016-12-09T01:26:25.810Z,74672
2016-12-09T01:26:34.519Z,74676
2016-12-09T01:26:43.207Z,74673
2016-12-09T01:26:52.008Z,74665
2016-12-09T01:27:00.760Z,74662
2016-12-09T01:27:09.524Z,74670
2016-12-09T01:27:18.265Z,74665
2016-12-09T01:27:26.983Z,74668
2016-12-09T01:27:35.643Z,74663
2016-12-09T01:27:44.372Z,74670
2016-12-09T01:27:53.086Z,74670
2016-12-09T01:28:01.811Z,74670
2016-12-09T01:28:10.511Z,74672
2016-12-09T01:28:19.538Z,74677
2016-12-09T01:28:28.255Z,74671
2016-12-09T01:28:36.940Z,74669
2016-12-09T01:28:45.671Z,74667
2016-12-09T01:28:54.390Z,74663
2016-12-09T01:29:03.071Z,74658
2016-12-09T01:29:11.785Z,74658
2016-12-09T01:29:20.488Z,74658
2016-12-09T01:29:29.211Z,74660
2016-12-09T01:29:37.908Z,74665
2016-12-09T01:29:46.661Z,74675
2016-12-09T01:29:55.392Z,74674
2016-12-09T01:30:04.158Z,74668
2016-12-09T01:30:12.881Z,74669
2016-12-09T01:30:21.892Z,74659
2016-12-09T01:30:30.627Z,74664
2016-12-09T01:30:39.356Z,74664
2016-12-09T01:30:48.359Z,74667
2016-12-09T01:30:57.064Z,74659
2016-12-09T01:31:05.781Z,74656
2016-12-09T01:31:14.516Z,74657
2016-12-09T01:31:23.221Z,74656
2016-12-09T01:31:31.949Z,74654
2016-12-09T01:31:40.705Z,74653
2016-12-09T01:31:49.395Z,74649
2016-12-09T01:31:58.112Z,74659
2016-12-09T01:32:06.826Z,74657
2016-12-09T01:32:15.547Z,74660
2016-12-09T01:32:24.235Z,74658
2016-12-09T01:32:32.940Z,74660
2016-12-09T01:32:41.685Z,74658
2016-12-09T01:32:50.382Z,74652
2016-12-09T01:32:59.075Z,74646
2016-12-09T01:33:07.792Z,74657
2016-12-09T01:33:16.495Z,74648
2016-12-09T01:33:25.201Z,74654
2016-12-09T01:33:33.905Z,74663
2016-12-09T01:33:42.589Z,74663
2016-12-09T01:33:51.356Z,74652
2016-12-09T01:34:00.030Z,74649
2016-12-09T01:34:08.731Z,74648
2016-12-09T01:34:17.462Z,74646
2016-12-09T01:34:26.161Z,74652
2016-12-09T01:34:34.911Z,74653
2016-12-09T01:34:43.676Z,74639
2016-12-09T01:34:52.417Z,74641
2016-12-09T01:35:01.127Z,74649
2016-12-09T01:35:09.863Z,74658
2016-12-09T01:35:18.592Z,74661
2016-12-09T01:35:27.307Z,74659
2016-12-09T01:35:36.053Z,74655
2016-12-09T01:35:44.761Z,74652
2016-12-09T01:35:53.471Z,74653
2016-12-09T01:36:02.177Z,74650
2016-12-09T01:36:10.882Z,74647
2016-12-09T01:36:19.597Z,74643
2016-12-09T01:36:28.284Z,74647
2016-12-09T01:36:36.984Z,74652
2016-12-09T01:36:45.666Z,74658
2016-12-09T01:36:54.367Z,74666
2016-12-09T01:37:03.067Z,74670
2016-12-09T01:37:11.780Z,74658
2016-12-09T01:37:20.481Z,74635
2016-12-09T01:37:29.184Z,74637
2016-12-09T01:37:37.916Z,74650
2016-12-09T01:37:46.587Z,74661
2016-12-09T01:37:55.311Z,74666
2016-12-09T01:38:04.329Z,74668
2016-12-09T01:38:13.102Z,74670
2016-12-09T01:38:21.843Z,74674
2016-12-09T01:38:30.564Z,74664
2016-12-09T01:38:39.289Z,74656
2016-12-09T01:38:48.013Z,74654
2016-12-09T01:38:56.703Z,74653
2016-12-09T01:39:05.403Z,74654
2016-12-09T01:39:14.089Z,74649
2016-12-09T01:39:22.800Z,74644
2016-12-09T01:39:31.527Z,74645
2016-12-09T01:39:40.277Z,74650
2016-12-09T01:39:49.020Z,74659
2016-12-09T01:39:57.735Z,74671
2016-12-09T01:40:06.474Z,74662
2016-12-09T01:40:15.208Z,74645
2016-12-09T01:40:23.933Z,74639
2016-12-09T01:40:32.662Z,74634
2016-12-09T01:40:41.421Z,74641
2016-12-09T01:40:50.145Z,74647
2016-12-09T01:40:58.864Z,74643
2016-12-09T01:41:07.557Z,74646
2016-12-09T01:41:16.283Z,74649
2016-12-09T01:41:25.027Z,74636
2016-12-09T01:41:33.733Z,74649
2016-12-09T01:41:42.400Z,74653
2016-12-09T01:41:51.106Z,74636
2016-12-09T01:41:59.801Z,74651
2016-12-09T01:42:08.508Z,74653
2016-12-09T01:42:17.203Z,74648
2016-12-09T01:42:25.908Z,74653
2016-12-09T01:42:34.620Z,74657
2016-12-09T01:42:43.365Z,74651
2016-12-09T01:42:52.108Z,74660
2016-12-09T01:43:00.813Z,74653
2016-12-09T01:43:09.539Z,74668
2016-12-09T01:43:18.243Z,74655
2016-12-09T01:43:26.969Z,74640
2016-12-09T01:43:35.661Z,74657
2016-12-09T01:43:44.391Z,74664
2016-12-09T01:43:53.140Z,74651
2016-12-09T01:44:01.853Z,74661
2016-12-09T01:44:10.577Z,74671
2016-12-09T01:44:19.328Z,74665
2016-12-09T01:44:28.044Z,74670
2016-12-09T01:44:36.770Z,74662
2016-12-09T01:44:45.474Z,74654
2016-12-09T01:44:54.175Z,74644
2016-12-09T01:45:02.914Z,74640
2016-12-09T01:45:11.939Z,74650
2016-12-09T01:45:20.664Z,74651
2016-12-09T01:45:29.368Z,74659
2016-12-09T01:45:38.072Z,74660
2016-12-09T01:45:46.787Z,74665
2016-12-09T01:45:55.792Z,74663
2016-12-09T01:46:04.552Z,74661
2016-12-09T01:46:13.234Z,74653
2016-12-09T01:46:21.897Z,74642
2016-12-09T01:46:30.608Z,74637
2016-12-09T01:46:39.315Z,74648
2016-12-09T01:46:48.044Z,74647
2016-12-09T01:46:56.785Z,74639
2016-12-09T01:47:05.517Z,74649
2016-12-09T01:47:14.211Z,74657
2016-12-09T01:47:22.939Z,74655
2016-12-09T01:47:31.654Z,74667
2016-12-09T01:47:40.345Z,74645
2016-12-09T01:47:49.043Z,74646
2016-12-09T01:47:57.748Z,74642
2016-12-09T01:48:06.454Z,74629
2016-12-09T01:48:15.182Z,74641
2016-12-09T01:48:23.903Z,74642
2016-12-09T01:48:32.598Z,74647
2016-12-09T01:48:41.304Z,74632
2016-12-09T01:48:50.023Z,74639
2016-12-09T01:48:58.717Z,74642
2016-12-09T01:49:07.413Z,74632
2016-12-09T01:49:16.147Z,74641
2016-12-09T01:49:24.832Z,74638
2016-12-09T01:49:33.543Z,74643
2016-12-09T01:49:42.232Z,74640
2016-12-09T01:49:50.991Z,74643
2016-12-09T01:49:59.704Z,74639
2016-12-09T01:50:08.434Z,74640
2016-12-09T01:50:17.121Z,74640
2016-12-09T01:50:26.126Z,74638
2016-12-09T01:50:34.820Z,74635
2016-12-09T01:50:43.559Z,74639
2016-12-09T01:50:52.313Z,74644
2016-12-09T01:51:01.033Z,74643
2016-12-09T01:51:09.784Z,74647
2016-12-09T01:51:18.528Z,74637
2016-12-09T01:51:27.250Z,74643
2016-12-09T01:51:35.944Z,74644
2016-12-09T01:51:44.668Z,74646
2016-12-09T01:51:53.378Z,74645
2016-12-09T01:52:02.397Z,74646
2016-12-09T01:52:11.135Z,74636
2016-12-09T01:52:19.847Z,74637